BAW341 EIDW-EGCC
Flight info
| Callsign | BAW341 |
|---|---|
| Flight time | N/A |
| Altitude | 21000 |
| Route | BOFUM3J BOFUM Q37 MALUD |
| Aircraft | A20N/M-SDE2E3FGHIRWXY/LB1 |
Departure
| Time | 2026-05-07 22:57 |
|---|---|
| Airport | Dublin Airport (EIDW) |
Arrival
| Time | N/A |
|---|---|
| Airport | Manchester Airport (EGCC) |
| Time | Latitude | Longitude | Altitude | Speed | Heading |
|---|---|---|---|---|---|
| 2026-05-07 22:31 | 53.42304 | -6.24324 | 211 ft | 0 kts | 315° |
| 2026-05-07 22:44 | 53.42297 | -6.24314 | 211 ft | 2 kts | 313° |
| 2026-05-07 22:44 | 53.42287 | -6.24293 | 214 ft | 2 kts | 310° |
| 2026-05-07 22:44 | 53.42276 | -6.24271 | 211 ft | 2 kts | 305° |
| 2026-05-07 22:44 | 53.42267 | -6.24248 | 218 ft | 2 kts | 300° |
| 2026-05-07 22:45 | 53.42260 | -6.24223 | 211 ft | 2 kts | 290° |
| 2026-05-07 22:45 | 53.42255 | -6.24196 | 214 ft | 2 kts | 276° |
| 2026-05-07 22:45 | 53.42255 | -6.24169 | 211 ft | 2 kts | 256° |
| 2026-05-07 22:45 | 53.42262 | -6.24143 | 211 ft | 2 kts | 231° |
| 2026-05-07 22:46 | 53.42273 | -6.24125 | 214 ft | 2 kts | 208° |
| 2026-05-07 22:46 | 53.42277 | -6.24121 | 212 ft | 0 kts | 199° |
| 2026-05-07 22:48 | 53.42276 | -6.24121 | 212 ft | 1 kts | 199° |
| 2026-05-07 22:48 | 53.42235 | -6.24149 | 211 ft | 11 kts | 208° |
| 2026-05-07 22:48 | 53.42168 | -6.24253 | 211 ft | 15 kts | 242° |
| 2026-05-07 22:48 | 53.42165 | -6.24435 | 216 ft | 17 kts | 276° |
| 2026-05-07 22:49 | 53.42176 | -6.24648 | 218 ft | 20 kts | 275° |
| 2026-05-07 22:49 | 53.42188 | -6.24878 | 211 ft | 18 kts | 274° |
| 2026-05-07 22:49 | 53.42189 | -6.24896 | 211 ft | 0 kts | 274° |
| 2026-05-07 22:50 | 53.42188 | -6.24878 | 211 ft | 5 kts | 274° |
| 2026-05-07 22:50 | 53.42184 | -6.24782 | 211 ft | 10 kts | 274° |
| 2026-05-07 22:50 | 53.42180 | -6.24693 | 213 ft | 0 kts | 274° |
| 2026-05-07 22:50 | 53.42191 | -6.24720 | 212 ft | 6 kts | 308° |
| 2026-05-07 22:51 | 53.42247 | -6.24776 | 211 ft | 13 kts | 336° |
| 2026-05-07 22:51 | 53.42349 | -6.24852 | 213 ft | 18 kts | 336° |
| 2026-05-07 22:51 | 53.42475 | -6.24945 | 213 ft | 21 kts | 337° |
| 2026-05-07 22:51 | 53.42618 | -6.25044 | 213 ft | 24 kts | 337° |
| 2026-05-07 22:52 | 53.42773 | -6.25159 | 214 ft | 25 kts | 327° |
| 2026-05-07 22:52 | 53.42911 | -6.25328 | 212 ft | 25 kts | 335° |
| 2026-05-07 22:52 | 53.43064 | -6.25439 | 214 ft | 18 kts | 336° |
| 2026-05-07 22:52 | 53.43190 | -6.25531 | 214 ft | 21 kts | 337° |
| 2026-05-07 22:53 | 53.43312 | -6.25618 | 217 ft | 13 kts | 336° |
| 2026-05-07 22:53 | 53.43378 | -6.25644 | 218 ft | 6 kts | 14° |
| 2026-05-07 22:53 | 53.43406 | -6.25587 | 210 ft | 8 kts | 80° |
| 2026-05-07 22:53 | 53.43402 | -6.25485 | 210 ft | 11 kts | 94° |
| 2026-05-07 22:54 | 53.43395 | -6.25356 | 210 ft | 14 kts | 96° |
| 2026-05-07 22:54 | 53.43384 | -6.25164 | 211 ft | 18 kts | 94° |
| 2026-05-07 22:54 | 53.43373 | -6.24931 | 215 ft | 21 kts | 95° |
| 2026-05-07 22:54 | 53.43359 | -6.24669 | 214 ft | 20 kts | 95° |
| 2026-05-07 22:55 | 53.43361 | -6.24624 | 215 ft | 6 kts | 79° |
| 2026-05-07 22:55 | 53.43399 | -6.24562 | 211 ft | 10 kts | 10° |
| 2026-05-07 22:55 | 53.43478 | -6.24549 | 217 ft | 12 kts | 356° |
| 2026-05-07 22:55 | 53.43528 | -6.24644 | 213 ft | 13 kts | 280° |
| 2026-05-07 22:56 | 53.43532 | -6.24706 | 220 ft | 0 kts | 274° |
| 2026-05-07 22:56 | 53.43534 | -6.24754 | 213 ft | 30 kts | 274° |
| 2026-05-07 22:56 | 53.43581 | -6.25668 | 209 ft | 123 kts | 276° |
| 2026-05-07 22:56 | 53.43759 | -6.27445 | 428 ft | 170 kts | 275° |
| 2026-05-07 22:57 | 53.43930 | -6.29593 | 1019 ft | 201 kts | 277° |
| 2026-05-07 22:57 | 53.44150 | -6.32039 | 2031 ft | 218 kts | 275° |
| 2026-05-07 22:57 | 53.44397 | -6.34587 | 3236 ft | 228 kts | 279° |
| 2026-05-07 22:57 | 53.44573 | -6.37113 | 4368 ft | 215 kts | 271° |
| 2026-05-07 22:58 | 53.44600 | -6.39672 | 5297 ft | 219 kts | 269° |
| 2026-05-07 22:58 | 53.44627 | -6.42208 | 6499 ft | 215 kts | 271° |
| 2026-05-07 22:58 | 53.45137 | -6.44470 | 7539 ft | 216 kts | 321° |
| 2026-05-07 22:58 | 53.46683 | -6.45480 | 7750 ft | 274 kts | 356° |
| 2026-05-07 22:59 | 53.48660 | -6.44555 | 7853 ft | 322 kts | 33° |
| 2026-05-07 22:59 | 53.50322 | -6.41864 | 8439 ft | 347 kts | 54° |
| 2026-05-07 22:59 | 53.51655 | -6.38273 | 8794 ft | 377 kts | 60° |